sensor_id;sensor_type;location;lat;lon;timestamp;P1;durP1;ratioP1;P2;durP2;ratioP2
85379;SDS011;75783;45.742;11.674;2024-01-15T21:07:27;14.33;;;11.53;;
85379;SDS011;75783;45.742;11.674;2024-01-15T21:07:33;17.80;;;12.95;;
85379;SDS011;75783;45.742;11.674;2024-01-15T21:07:39;19.65;;;13.32;;
85379;SDS011;75783;45.742;11.674;2024-01-15T21:07:45;19.10;;;13.70;;
85379;SDS011;75783;45.742;11.674;2024-01-15T21:07:54;19.11;;;13.70;;
85379;SDS011;75783;45.742;11.674;2024-01-15T21:08:00;19.13;;;14.03;;
85379;SDS011;75783;45.742;11.674;2024-01-15T21:08:07;17.58;;;13.90;;
85379;SDS011;75783;45.742;11.674;2024-01-15T21:08:14;17.53;;;13.60;;
85379;SDS011;75783;45.742;11.674;2024-01-15T21:08:20;17.07;;;13.73;;
85379;SDS011;75783;45.742;11.674;2024-01-15T21:08:26;17.07;;;13.67;;
85379;SDS011;75783;45.742;11.674;2024-01-15T21:08:31;17.38;;;13.90;;
85379;SDS011;75783;45.742;11.674;2024-01-15T21:08:37;18.88;;;14.18;;
85379;SDS011;75783;45.742;11.674;2024-01-15T21:08:45;19.30;;;14.52;;
85379;SDS011;75783;45.742;11.674;2024-01-15T21:08:50;19.98;;;14.85;;
85379;SDS011;75783;45.742;11.674;2024-01-15T21:08:56;20.37;;;14.87;;
85379;SDS011;75783;45.742;11.674;2024-01-15T21:09:01;20.52;;;14.75;;
85379;SDS011;75783;45.742;11.674;2024-01-15T21:09:07;19.95;;;14.65;;
85379;SDS011;75783;45.742;11.674;2024-01-15T21:09:13;20.23;;;14.67;;
85379;SDS011;75783;45.742;11.674;2024-01-15T21:09:19;20.02;;;14.35;;
85379;SDS011;75783;45.742;11.674;2024-01-15T21:09:24;19.80;;;14.13;;
85379;SDS011;75783;45.742;11.674;2024-01-15T21:09:30;19.60;;;14.05;;
85379;SDS011;75783;45.742;11.674;2024-01-15T21:09:35;18.85;;;13.88;;
85379;SDS011;75783;45.742;11.674;2024-01-15T21:09:43;18.22;;;13.68;;
85379;SDS011;75783;45.742;11.674;2024-01-15T21:09:49;17.50;;;13.60;;
85379;SDS011;75783;45.742;11.674;2024-01-15T21:09:54;17.10;;;13.57;;
85379;SDS011;75783;45.742;11.674;2024-01-15T21:10:01;17.07;;;13.67;;
85379;SDS011;75783;45.742;11.674;2024-01-15T21:10:07;17.42;;;13.50;;
85379;SDS011;75783;45.742;11.674;2024-01-15T21:10:32;14.73;;;11.68;;
85379;SDS011;75783;45.742;11.674;2024-01-15T21:10:37;23.67;;;13.43;;
85379;SDS011;75783;45.742;11.674;2024-01-15T21:10:43;21.95;;;14.05;;
85379;SDS011;75783;45.742;11.674;2024-01-15T21:10:49;20.57;;;14.20;;
85379;SDS011;75783;45.742;11.674;2024-01-15T21:10:54;19.98;;;14.05;;
85379;SDS011;75783;45.742;11.674;2024-01-15T21:11:00;20.00;;;14.00;;
85379;SDS011;75783;45.742;11.674;2024-01-15T21:11:08;18.57;;;14.03;;
85379;SDS011;75783;45.742;11.674;2024-01-15T21:11:14;18.02;;;13.93;;
85379;SDS011;75783;45.742;11.674;2024-01-15T21:11:20;18.35;;;13.95;;
85379;SDS011;75783;45.742;11.674;2024-01-15T21:11:25;18.90;;;13.97;;
85379;SDS011;75783;45.742;11.674;2024-01-15T21:11:31;18.20;;;13.90;;
85379;SDS011;75783;45.742;11.674;2024-01-15T21:11:37;18.13;;;14.27;;
85379;SDS011;75783;45.742;11.674;2024-01-15T21:11:43;19.33;;;14.25;;
85379;SDS011;75783;45.742;11.674;2024-01-15T21:11:48;19.70;;;14.23;;
85379;SDS011;75783;45.742;11.674;2024-01-15T21:11:54;19.58;;;14.48;;
85379;SDS011;75783;45.742;11.674;2024-01-15T21:11:59;19.57;;;14.60;;
85379;SDS011;75783;45.742;11.674;2024-01-15T21:12:06;20.77;;;14.70;;
85379;SDS011;75783;45.742;11.674;2024-01-15T21:12:11;21.10;;;14.65;;
85379;SDS011;75783;45.742;11.674;2024-01-15T21:12:17;20.08;;;14.63;;
85379;SDS011;75783;45.742;11.674;2024-01-15T21:12:23;19.83;;;14.55;;
85379;SDS011;75783;45.742;11.674;2024-01-15T21:12:29;19.93;;;14.43;;
85379;SDS011;75783;45.742;11.674;2024-01-15T21:12:35;19.27;;;13.97;;
85379;SDS011;75783;45.742;11.674;2024-01-15T21:12:40;18.83;;;13.82;;
85379;SDS011;75783;45.742;11.674;2024-01-15T21:12:46;18.55;;;13.68;;
85379;SDS011;75783;45.742;11.674;2024-01-15T21:12:52;19.17;;;13.70;;
85379;SDS011;75783;45.742;11.674;2024-01-15T21:12:57;18.27;;;13.45;;
85379;SDS011;75783;45.742;11.674;2024-01-15T21:13:25;12.17;;;10.67;;
85379;SDS011;75783;45.742;11.674;2024-01-15T21:13:31;16.05;;;12.90;;
85379;SDS011;75783;45.742;11.674;2024-01-15T21:13:38;17.04;;;13.30;;
85379;SDS011;75783;45.742;11.674;2024-01-15T21:13:44;19.23;;;13.30;;
85379;SDS011;75783;45.742;11.674;2024-01-15T21:13:49;18.65;;;13.55;;
85379;SDS011;75783;45.742;11.674;2024-01-15T21:13:55;18.33;;;13.40;;
85379;SDS011;75783;45.742;11.674;2024-01-15T21:14:00;18.38;;;13.40;;
85379;SDS011;75783;45.742;11.674;2024-01-15T21:14:08;18.68;;;13.84;;
85379;SDS011;75783;45.742;11.674;2024-01-15T21:14:13;17.50;;;13.90;;
85379;SDS011;75783;45.742;11.674;2024-01-15T21:14:23;18.90;;;14.10;;
85379;SDS011;75783;45.742;11.674;2024-01-15T21:14:29;19.60;;;14.37;;
85379;SDS011;75783;45.742;11.674;2024-01-15T21:14:34;19.02;;;14.32;;
85379;SDS011;75783;45.742;11.674;2024-01-15T21:14:41;18.97;;;13.77;;
85379;SDS011;75783;45.742;11.674;2024-01-15T21:14:46;19.17;;;14.03;;
85379;SDS011;75783;45.742;11.674;2024-01-15T21:14:52;19.05;;;14.25;;
85379;SDS011;75783;45.742;11.674;2024-01-15T21:14:59;18.36;;;14.20;;
85379;SDS011;75783;45.742;11.674;2024-01-15T21:15:05;18.23;;;13.93;;
85379;SDS011;75783;45.742;11.674;2024-01-15T21:15:15;17.98;;;14.07;;
85379;SDS011;75783;45.742;11.674;2024-01-15T21:15:21;17.41;;;13.79;;
85379;SDS011;75783;45.742;11.674;2024-01-15T21:15:27;17.13;;;13.75;;
85379;SDS011;75783;45.742;11.674;2024-01-15T21:15:33;17.90;;;14.00;;
85379;SDS011;75783;45.742;11.674;2024-01-15T21:15:39;17.77;;;13.88;;
85379;SDS011;75783;45.742;11.674;2024-01-15T21:15:45;19.42;;;14.02;;
85379;SDS011;75783;45.742;11.674;2024-01-15T21:23:21;28.20;;;14.90;;
85379;SDS011;75783;45.742;11.674;2024-01-15T21:23:26;30.38;;;15.77;;
85379;SDS011;75783;45.742;11.674;2024-01-15T21:23:33;38.77;;;17.27;;
85379;SDS011;75783;45.742;11.674;2024-01-15T21:23:39;36.72;;;17.30;;
85379;SDS011;75783;45.742;11.674;2024-01-15T21:23:45;35.78;;;17.17;;
85379;SDS011;75783;45.742;11.674;2024-01-15T21:23:51;35.07;;;17.47;;
85379;SDS011;75783;45.742;11.674;2024-01-15T21:23:56;35.60;;;17.70;;
85379;SDS011;75783;45.742;11.674;2024-01-15T21:24:02;33.17;;;17.77;;
85379;SDS011;75783;45.742;11.674;2024-01-15T21:24:08;33.05;;;17.75;;
85379;SDS011;75783;45.742;11.674;2024-01-15T21:24:13;31.80;;;17.92;;
85379;SDS011;75783;45.742;11.674;2024-01-15T21:24:21;31.50;;;18.16;;
85379;SDS011;75783;45.742;11.674;2024-01-15T21:24:32;32.33;;;18.80;;
85379;SDS011;75783;45.742;11.674;2024-01-15T21:24:37;33.05;;;19.13;;
85379;SDS011;75783;45.742;11.674;2024-01-15T21:24:44;34.55;;;19.75;;
85379;SDS011;75783;45.742;11.674;2024-01-15T21:24:49;35.30;;;19.87;;
85379;SDS011;75783;45.742;11.674;2024-01-15T21:24:55;34.22;;;19.38;;
85379;SDS011;75783;45.742;11.674;2024-01-15T21:25:01;35.28;;;19.42;;
85379;SDS011;75783;45.742;11.674;2024-01-15T21:25:08;36.22;;;19.18;;
85379;SDS011;75783;45.742;11.674;2024-01-15T21:25:15;37.16;;;18.92;;
85379;SDS011;75783;45.742;11.674;2024-01-15T21:25:20;37.13;;;19.37;;
85379;SDS011;75783;45.742;11.674;2024-01-15T21:25:26;37.43;;;19.63;;
85379;SDS011;75783;45.742;11.674;2024-01-15T21:25:32;34.80;;;19.20;;
85379;SDS011;75783;45.742;11.674;2024-01-15T21:25:38;32.30;;;19.00;;
85379;SDS011;75783;45.742;11.674;2024-01-15T21:25:43;31.25;;;18.45;;
85379;SDS011;75783;45.742;11.674;2024-01-15T21:25:49;31.48;;;18.02;;
85379;SDS011;75783;45.742;11.674;2024-01-15T21:25:55;31.60;;;17.70;;
85379;SDS011;75783;45.742;11.674;2024-01-15T21:26:00;33.08;;;18.23;;
85379;SDS011;75783;45.742;11.674;2024-01-15T21:26:06;34.00;;;18.70;;
85379;SDS011;75783;45.742;11.674;2024-01-15T21:26:12;34.28;;;19.10;;
85379;SDS011;75783;45.742;11.674;2024-01-15T21:26:18;33.90;;;19.07;;
85379;SDS011;75783;45.742;11.674;2024-01-15T21:26:24;35.97;;;18.85;;
85379;SDS011;75783;45.742;11.674;2024-01-15T21:26:30;34.73;;;18.37;;
85379;SDS011;75783;45.742;11.674;2024-01-15T21:26:35;35.92;;;18.20;;
85379;SDS011;75783;45.742;11.674;2024-01-15T21:26:41;38.13;;;18.20;;
85379;SDS011;75783;45.742;11.674;2024-01-15T21:26:47;39.78;;;18.20;;
85379;SDS011;75783;45.742;11.674;2024-01-15T21:26:53;36.78;;;18.67;;
85379;SDS011;75783;45.742;11.674;2024-01-15T21:26:59;37.00;;;19.15;;
85379;SDS011;75783;45.742;11.674;2024-01-15T21:27:05;35.60;;;18.98;;
85379;SDS011;75783;45.742;11.674;2024-01-15T21:27:10;32.73;;;18.67;;
85379;SDS011;75783;45.742;11.674;2024-01-15T21:27:16;31.70;;;18.35;;
85379;SDS011;75783;45.742;11.674;2024-01-15T21:27:21;31.17;;;18.23;;
85379;SDS011;75783;45.742;11.674;2024-01-15T21:27:28;30.86;;;18.34;;
85379;SDS011;75783;45.742;11.674;2024-01-15T21:27:34;29.50;;;18.25;;
85379;SDS011;75783;45.742;11.674;2024-01-15T21:27:39;30.40;;;18.53;;
85379;SDS011;75783;45.742;11.674;2024-01-15T21:27:45;31.75;;;19.17;;
85379;SDS011;75783;45.742;11.674;2024-01-15T21:27:51;31.70;;;19.45;;
85379;SDS011;75783;45.742;11.674;2024-01-15T21:27:57;32.08;;;19.17;;
85379;SDS011;75783;45.742;11.674;2024-01-15T21:28:03;32.55;;;19.58;;
85379;SDS011;75783;45.742;11.674;2024-01-15T21:28:09;33.47;;;20.03;;
85379;SDS011;75783;45.742;11.674;2024-01-15T21:28:14;32.28;;;20.08;;
85379;SDS011;75783;45.742;11.674;2024-01-15T21:28:22;31.75;;;20.02;;
85379;SDS011;75783;45.742;11.674;2024-01-15T21:28:28;32.17;;;20.30;;
85379;SDS011;75783;45.742;11.674;2024-01-15T21:28:35;31.52;;;19.90;;
85379;SDS011;75783;45.742;11.674;2024-01-15T21:28:40;30.05;;;19.20;;
85379;SDS011;75783;45.742;11.674;2024-01-15T21:28:46;32.47;;;19.50;;
85379;SDS011;75783;45.742;11.674;2024-01-15T21:28:53;33.28;;;19.46;;
85379;SDS011;75783;45.742;11.674;2024-01-15T21:28:58;32.40;;;19.27;;
85379;SDS011;75783;45.742;11.674;2024-01-15T21:29:04;33.37;;;19.27;;
85379;SDS011;75783;45.742;11.674;2024-01-15T21:29:10;33.58;;;19.42;;
85379;SDS011;75783;45.742;11.674;2024-01-15T21:29:15;30.88;;;18.98;;
85379;SDS011;75783;45.742;11.674;2024-01-15T21:29:21;30.07;;;18.63;;
85379;SDS011;75783;45.742;11.674;2024-01-15T21:29:26;30.92;;;18.40;;
85379;SDS011;75783;45.742;11.674;2024-01-15T21:29:32;31.33;;;18.67;;
85379;SDS011;75783;45.742;11.674;2024-01-15T21:29:38;30.63;;;18.77;;
85379;SDS011;75783;45.742;11.674;2024-01-15T21:29:44;30.95;;;18.88;;
85379;SDS011;75783;45.742;11.674;2024-01-15T21:29:53;30.80;;;18.80;;
85379;SDS011;75783;45.742;11.674;2024-01-15T21:29:58;30.33;;;18.83;;
85379;SDS011;75783;45.742;11.674;2024-01-15T21:30:04;29.37;;;18.57;;
85379;SDS011;75783;45.742;11.674;2024-01-15T21:30:10;30.13;;;18.17;;
85379;SDS011;75783;45.742;11.674;2024-01-15T21:30:16;30.02;;;18.15;;
85379;SDS011;75783;45.742;11.674;2024-01-15T21:30:22;29.63;;;17.73;;
85379;SDS011;75783;45.742;11.674;2024-01-15T21:30:28;28.50;;;17.38;;
85379;SDS011;75783;45.742;11.674;2024-01-15T21:30:33;29.37;;;17.10;;
85379;SDS011;75783;45.742;11.674;2024-01-15T21:30:40;28.83;;;17.00;;
85379;SDS011;75783;45.742;11.674;2024-01-15T21:30:45;28.93;;;16.90;;
85379;SDS011;75783;45.742;11.674;2024-01-15T21:30:52;30.50;;;17.48;;
85379;SDS011;75783;45.742;11.674;2024-01-15T21:30:58;33.17;;;18.03;;
85379;SDS011;75783;45.742;11.674;2024-01-15T21:31:04;33.17;;;18.43;;
85379;SDS011;75783;45.742;11.674;2024-01-15T21:31:10;31.85;;;18.65;;
85379;SDS011;75783;45.742;11.674;2024-01-15T21:31:15;31.93;;;18.80;;
85379;SDS011;75783;45.742;11.674;2024-01-15T21:31:21;30.02;;;18.48;;
85379;SDS011;75783;45.742;11.674;2024-01-15T21:31:27;27.93;;;18.17;;
85379;SDS011;75783;45.742;11.674;2024-01-15T21:31:36;27.73;;;17.88;;
85379;SDS011;75783;45.742;11.674;2024-01-15T21:31:43;31.86;;;18.11;;
85379;SDS011;75783;45.742;11.674;2024-01-15T21:31:52;34.37;;;18.20;;
85379;SDS011;75783;45.742;11.674;2024-01-15T21:31:59;35.58;;;18.40;;
85379;SDS011;75783;45.742;11.674;2024-01-15T21:32:05;35.73;;;18.53;;
85379;SDS011;75783;45.742;11.674;2024-01-15T21:32:11;33.45;;;17.73;;
85379;SDS011;75783;45.742;11.674;2024-01-15T21:32:16;32.13;;;17.50;;
85379;SDS011;75783;45.742;11.674;2024-01-15T21:32:23;30.53;;;17.63;;
85379;SDS011;75783;45.742;11.674;2024-01-15T21:32:29;29.65;;;17.55;;
85379;SDS011;75783;45.742;11.674;2024-01-15T21:32:34;28.53;;;17.47;;
85379;SDS011;75783;45.742;11.674;2024-01-15T21:32:40;28.23;;;17.70;;
85379;SDS011;75783;45.742;11.674;2024-01-15T21:32:46;28.98;;;17.70;;
85379;SDS011;75783;45.742;11.674;2024-01-15T21:32:52;28.35;;;17.73;;
85379;SDS011;75783;45.742;11.674;2024-01-15T21:32:57;27.63;;;17.53;;
85379;SDS011;75783;45.742;11.674;2024-01-15T21:33:04;26.90;;;17.45;;
85379;SDS011;75783;45.742;11.674;2024-01-15T21:33:09;26.85;;;17.23;;
85379;SDS011;75783;45.742;11.674;2024-01-15T21:33:16;26.33;;;17.03;;
85379;SDS011;75783;45.742;11.674;2024-01-15T21:33:22;26.67;;;16.97;;
85379;SDS011;75783;45.742;11.674;2024-01-15T21:33:27;29.88;;;17.13;;
85379;SDS011;75783;45.742;11.674;2024-01-15T21:33:36;29.50;;;17.27;;
85379;SDS011;75783;45.742;11.674;2024-01-15T21:33:44;29.53;;;17.42;;
85379;SDS011;75783;45.742;11.674;2024-01-15T21:33:50;29.97;;;18.43;;
85379;SDS011;75783;45.742;11.674;2024-01-15T21:33:56;27.83;;;18.80;;
85379;SDS011;75783;45.742;11.674;2024-01-15T21:34:02;27.10;;;18.57;;
85379;SDS011;75783;45.742;11.674;2024-01-15T21:34:07;28.00;;;18.88;;
85379;SDS011;75783;45.742;11.674;2024-01-15T21:34:13;28.95;;;19.10;;
85379;SDS011;75783;45.742;11.674;2024-01-15T21:34:20;28.70;;;18.40;;
85379;SDS011;75783;45.742;11.674;2024-01-15T21:34:26;30.88;;;18.15;;
85379;SDS011;75783;45.742;11.674;2024-01-15T21:34:31;31.10;;;18.20;;
85379;SDS011;75783;45.742;11.674;2024-01-15T21:34:37;31.17;;;18.03;;
85379;SDS011;75783;45.742;11.674;2024-01-15T21:34:42;32.25;;;18.05;;
85379;SDS011;75783;45.742;11.674;2024-01-15T21:34:48;31.20;;;17.73;;
85379;SDS011;75783;45.742;11.674;2024-01-15T21:34:54;29.33;;;17.60;;
85379;SDS011;75783;45.742;11.674;2024-01-15T21:34:59;28.27;;;17.63;;
85379;SDS011;75783;45.742;11.674;2024-01-15T21:35:06;28.10;;;17.80;;
85379;SDS011;75783;45.742;11.674;2024-01-15T21:35:12;28.03;;;18.13;;
85379;SDS011;75783;45.742;11.674;2024-01-15T21:35:18;28.87;;;18.83;;
85379;SDS011;75783;45.742;11.674;2024-01-15T21:35:23;30.05;;;18.83;;
85379;SDS011;75783;45.742;11.674;2024-01-15T21:35:29;31.23;;;18.33;;
85379;SDS011;75783;45.742;11.674;2024-01-15T21:35:35;32.05;;;18.10;;
85379;SDS011;75783;45.742;11.674;2024-01-15T21:35:40;31.03;;;17.80;;
85379;SDS011;75783;45.742;11.674;2024-01-15T21:35:46;29.85;;;17.35;;
85379;SDS011;75783;45.742;11.674;2024-01-15T21:35:51;30.43;;;17.17;;
85379;SDS011;75783;45.742;11.674;2024-01-15T21:35:57;31.27;;;17.00;;
85379;SDS011;75783;45.742;11.674;2024-01-15T21:36:03;29.95;;;17.13;;
85379;SDS011;75783;45.742;11.674;2024-01-15T21:36:09;29.33;;;16.63;;
85379;SDS011;75783;45.742;11.674;2024-01-15T21:36:15;30.17;;;16.48;;
85379;SDS011;75783;45.742;11.674;2024-01-15T21:36:21;29.23;;;16.58;;
85379;SDS011;75783;45.742;11.674;2024-01-15T21:36:26;28.07;;;16.67;;
85379;SDS011;75783;45.742;11.674;2024-01-15T21:36:32;29.33;;;16.80;;
85379;SDS011;75783;45.742;11.674;2024-01-15T21:36:38;28.97;;;17.00;;
85379;SDS011;75783;45.742;11.674;2024-01-15T21:36:43;29.17;;;17.35;;
85379;SDS011;75783;45.742;11.674;2024-01-15T21:36:49;29.67;;;17.73;;
85379;SDS011;75783;45.742;11.674;2024-01-15T21:36:55;29.33;;;17.87;;
85379;SDS011;75783;45.742;11.674;2024-01-15T21:37:00;27.55;;;18.20;;
85379;SDS011;75783;45.742;11.674;2024-01-15T21:37:06;27.15;;;18.20;;
85379;SDS011;75783;45.742;11.674;2024-01-15T21:37:12;27.63;;;18.57;;
85379;SDS011;75783;45.742;11.674;2024-01-15T21:37:18;28.40;;;18.70;;
85379;SDS011;75783;45.742;11.674;2024-01-15T21:37:23;27.08;;;18.27;;
85379;SDS011;75783;45.742;11.674;2024-01-15T21:37:29;26.60;;;18.17;;
85379;SDS011;75783;45.742;11.674;2024-01-15T21:37:36;26.30;;;18.27;;
85379;SDS011;75783;45.742;11.674;2024-01-15T21:37:41;24.35;;;17.77;;
85379;SDS011;75783;45.742;11.674;2024-01-15T21:37:48;26.00;;;17.58;;
85379;SDS011;75783;45.742;11.674;2024-01-15T21:37:53;27.10;;;17.48;;
85379;SDS011;75783;45.742;11.674;2024-01-15T21:37:59;26.73;;;17.10;;
85379;SDS011;75783;45.742;11.674;2024-01-15T21:38:04;26.27;;;16.88;;
85379;SDS011;75783;45.742;11.674;2024-01-15T21:38:10;27.50;;;17.00;;
85379;SDS011;75783;45.742;11.674;2024-01-15T21:38:16;26.25;;;16.77;;
85379;SDS011;75783;45.742;11.674;2024-01-15T21:38:21;25.07;;;16.53;;
85379;SDS011;75783;45.742;11.674;2024-01-15T21:38:27;27.00;;;16.52;;
85379;SDS011;75783;45.742;11.674;2024-01-15T21:38:32;27.33;;;16.30;;
85379;SDS011;75783;45.742;11.674;2024-01-15T21:38:38;27.73;;;16.08;;
85379;SDS011;75783;45.742;11.674;2024-01-15T21:38:44;27.83;;;16.00;;
85379;SDS011;75783;45.742;11.674;2024-01-15T21:38:49;29.13;;;16.33;;
85379;SDS011;75783;45.742;11.674;2024-01-15T21:38:55;28.48;;;16.30;;
85379;SDS011;75783;45.742;11.674;2024-01-15T21:39:00;27.37;;;16.50;;
85379;SDS011;75783;45.742;11.674;2024-01-15T21:39:06;27.20;;;16.45;;
85379;SDS011;75783;45.742;11.674;2024-01-15T21:39:12;26.60;;;16.30;;
85379;SDS011;75783;45.742;11.674;2024-01-15T21:39:20;24.63;;;15.87;;
85379;SDS011;75783;45.742;11.674;2024-01-15T21:39:26;23.73;;;15.93;;
85379;SDS011;75783;45.742;11.674;2024-01-15T21:39:31;23.83;;;15.80;;
85379;SDS011;75783;45.742;11.674;2024-01-15T21:39:37;23.55;;;15.95;;
85379;SDS011;75783;45.742;11.674;2024-01-15T21:39:43;23.38;;;16.23;;
85379;SDS011;75783;45.742;11.674;2024-01-15T21:39:49;22.60;;;16.30;;
85379;SDS011;75783;45.742;11.674;2024-01-15T21:39:54;22.50;;;16.25;;
85379;SDS011;75783;45.742;11.674;2024-01-15T21:40:00;23.60;;;16.35;;
85379;SDS011;75783;45.742;11.674;2024-01-15T21:40:08;23.32;;;16.18;;
85379;SDS011;75783;45.742;11.674;2024-01-15T21:40:15;23.06;;;15.88;;
85379;SDS011;75783;45.742;11.674;2024-01-15T21:40:21;23.88;;;15.50;;
85379;SDS011;75783;45.742;11.674;2024-01-15T21:40:26;24.80;;;15.48;;
85379;SDS011;75783;45.742;11.674;2024-01-15T21:40:32;24.43;;;15.33;;
85379;SDS011;75783;45.742;11.674;2024-01-15T21:40:38;24.85;;;15.38;;
85379;SDS011;75783;45.742;11.674;2024-01-15T21:40:43;24.40;;;15.45;;
85379;SDS011;75783;45.742;11.674;2024-01-15T21:40:49;24.17;;;15.43;;
85379;SDS011;75783;45.742;11.674;2024-01-15T21:40:54;23.00;;;15.40;;
85379;SDS011;75783;45.742;11.674;2024-01-15T21:41:00;22.40;;;15.53;;
85379;SDS011;75783;45.742;11.674;2024-01-15T21:41:06;22.50;;;15.88;;
85379;SDS011;75783;45.742;11.674;2024-01-15T21:41:11;22.90;;;15.97;;
85379;SDS011;75783;45.742;11.674;2024-01-15T21:41:18;23.24;;;16.00;;
85379;SDS011;75783;45.742;11.674;2024-01-15T21:41:23;22.47;;;15.77;;
85379;SDS011;75783;45.742;11.674;2024-01-15T21:41:29;21.90;;;15.60;;
85379;SDS011;75783;45.742;11.674;2024-01-15T21:41:35;21.27;;;15.43;;
85379;SDS011;75783;45.742;11.674;2024-01-15T21:41:44;22.20;;;15.27;;
85379;SDS011;75783;45.742;11.674;2024-01-15T21:41:50;21.49;;;15.46;;
85379;SDS011;75783;45.742;11.674;2024-01-15T21:41:56;24.77;;;15.77;;
85379;SDS011;75783;45.742;11.674;2024-01-15T21:42:02;25.80;;;15.70;;
85379;SDS011;75783;45.742;11.674;2024-01-15T21:42:09;24.77;;;15.53;;
85379;SDS011;75783;45.742;11.674;2024-01-15T21:42:15;24.58;;;15.62;;
85379;SDS011;75783;45.742;11.674;2024-01-15T21:42:21;25.67;;;15.82;;
85379;SDS011;75783;45.742;11.674;2024-01-15T21:42:27;24.60;;;16.17;;
85379;SDS011;75783;45.742;11.674;2024-01-15T21:42:33;23.80;;;15.85;;
85379;SDS011;75783;45.742;11.674;2024-01-15T21:42:41;26.83;;;15.85;;
85379;SDS011;75783;45.742;11.674;2024-01-15T21:42:47;27.58;;;15.60;;
85379;SDS011;75783;45.742;11.674;2024-01-15T21:42:52;26.73;;;15.23;;
85379;SDS011;75783;45.742;11.674;2024-01-15T21:42:59;25.70;;;15.33;;
85379;SDS011;75783;45.742;11.674;2024-01-15T21:43:04;25.83;;;15.60;;
85379;SDS011;75783;45.742;11.674;2024-01-15T21:43:10;23.87;;;15.67;;
85379;SDS011;75783;45.742;11.674;2024-01-15T21:43:16;24.33;;;15.55;;
85379;SDS011;75783;45.742;11.674;2024-01-15T21:43:21;23.52;;;15.48;;
85379;SDS011;75783;45.742;11.674;2024-01-15T21:43:27;23.50;;;15.27;;
85379;SDS011;75783;45.742;11.674;2024-01-15T21:43:32;23.80;;;15.23;;
85379;SDS011;75783;45.742;11.674;2024-01-15T21:43:38;24.37;;;15.47;;
85379;SDS011;75783;45.742;11.674;2024-01-15T21:43:46;24.18;;;15.73;;
85379;SDS011;75783;45.742;11.674;2024-01-15T21:43:51;23.50;;;15.70;;
85379;SDS011;75783;45.742;11.674;2024-01-15T21:43:57;24.48;;;15.93;;
85379;SDS011;75783;45.742;11.674;2024-01-15T21:44:02;25.48;;;15.82;;
85379;SDS011;75783;45.742;11.674;2024-01-15T21:44:11;24.95;;;15.75;;
85379;SDS011;75783;45.742;11.674;2024-01-15T21:44:17;25.20;;;15.73;;
85379;SDS011;75783;45.742;11.674;2024-01-15T21:44:23;24.93;;;15.77;;
85379;SDS011;75783;45.742;11.674;2024-01-15T21:44:28;24.67;;;15.48;;
85379;SDS011;75783;45.742;11.674;2024-01-15T21:44:34;22.95;;;15.50;;
85379;SDS011;75783;45.742;11.674;2024-01-15T21:44:40;21.90;;;15.03;;
85379;SDS011;75783;45.742;11.674;2024-01-15T21:44:45;22.63;;;15.02;;
85379;SDS011;75783;45.742;11.674;2024-01-15T21:44:51;23.10;;;15.05;;
85379;SDS011;75783;45.742;11.674;2024-01-15T21:44:56;23.13;;;15.03;;
85379;SDS011;75783;45.742;11.674;2024-01-15T21:45:02;23.25;;;15.18;;
85379;SDS011;75783;45.742;11.674;2024-01-15T21:45:10;23.07;;;15.20;;
85379;SDS011;75783;45.742;11.674;2024-01-15T21:45:16;22.20;;;15.10;;
85379;SDS011;75783;45.742;11.674;2024-01-15T21:45:22;22.08;;;15.32;;
85379;SDS011;75783;45.742;11.674;2024-01-15T21:45:27;21.83;;;15.68;;
85379;SDS011;75783;45.742;11.674;2024-01-15T21:45:33;22.88;;;15.60;;
85379;SDS011;75783;45.742;11.674;2024-01-15T21:45:39;23.97;;;15.73;;
85379;SDS011;75783;45.742;11.674;2024-01-15T21:45:44;24.00;;;15.95;;
85379;SDS011;75783;45.742;11.674;2024-01-15T21:45:50;23.63;;;15.87;;
85379;SDS011;75783;45.742;11.674;2024-01-15T21:45:55;24.92;;;15.48;;
85379;SDS011;75783;45.742;11.674;2024-01-15T21:46:01;24.33;;;15.43;;
85379;SDS011;75783;45.742;11.674;2024-01-15T21:46:07;23.63;;;15.82;;
85379;SDS011;75783;45.742;11.674;2024-01-15T21:46:12;23.33;;;16.07;;
85379;SDS011;75783;45.742;11.674;2024-01-15T21:46:18;25.02;;;16.00;;
85379;SDS011;75783;45.742;11.674;2024-01-15T21:46:24;24.47;;;16.00;;
85379;SDS011;75783;45.742;11.674;2024-01-15T21:46:29;24.88;;;16.08;;
85379;SDS011;75783;45.742;11.674;2024-01-15T21:46:35;25.37;;;15.80;;
85379;SDS011;75783;45.742;11.674;2024-01-15T21:46:41;25.65;;;15.20;;
85379;SDS011;75783;45.742;11.674;2024-01-15T21:46:46;24.83;;;15.13;;
85379;SDS011;75783;45.742;11.674;2024-01-15T21:46:52;24.33;;;15.13;;
85379;SDS011;75783;45.742;11.674;2024-01-15T21:47:28;18.67;;;13.03;;
85379;SDS011;75783;45.742;11.674;2024-01-15T21:47:35;23.13;;;14.80;;
85379;SDS011;75783;45.742;11.674;2024-01-15T21:47:41;23.53;;;15.03;;
85379;SDS011;75783;45.742;11.674;2024-01-15T21:47:47;24.40;;;15.47;;
85379;SDS011;75783;45.742;11.674;2024-01-15T21:47:53;25.23;;;15.63;;
85379;SDS011;75783;45.742;11.674;2024-01-15T21:47:58;25.40;;;16.00;;
85379;SDS011;75783;45.742;11.674;2024-01-15T21:48:04;23.63;;;15.70;;
85379;SDS011;75783;45.742;11.674;2024-01-15T21:48:09;22.55;;;15.35;;
85379;SDS011;75783;45.742;11.674;2024-01-15T21:48:15;22.13;;;15.17;;
85379;SDS011;75783;45.742;11.674;2024-01-15T21:48:21;21.98;;;15.10;;
85379;SDS011;75783;45.742;11.674;2024-01-15T21:48:26;21.87;;;14.83;;
85379;SDS011;75783;45.742;11.674;2024-01-15T21:48:32;21.25;;;15.00;;
85379;SDS011;75783;45.742;11.674;2024-01-15T21:48:37;21.77;;;15.03;;
85379;SDS011;75783;45.742;11.674;2024-01-15T21:48:43;21.55;;;15.07;;
85379;SDS011;75783;45.742;11.674;2024-01-15T21:48:48;21.58;;;15.15;;
85379;SDS011;75783;45.742;11.674;2024-01-15T21:48:55;22.98;;;15.65;;
85379;SDS011;75783;45.742;11.674;2024-01-15T21:49:01;25.95;;;15.93;;
85379;SDS011;75783;45.742;11.674;2024-01-15T21:49:09;27.23;;;16.53;;
85379;SDS011;75783;45.742;11.674;2024-01-15T21:49:14;27.47;;;16.57;;
85379;SDS011;75783;45.742;11.674;2024-01-15T21:49:20;26.67;;;16.83;;
85379;SDS011;75783;45.742;11.674;2024-01-15T21:49:26;24.52;;;16.58;;
85379;SDS011;75783;45.742;11.674;2024-01-15T21:49:32;23.53;;;16.23;;
85379;SDS011;75783;45.742;11.674;2024-01-15T21:49:37;23.35;;;15.77;;
85379;SDS011;75783;45.742;11.674;2024-01-15T21:49:43;23.10;;;15.75;;
85379;SDS011;75783;45.742;11.674;2024-01-15T21:49:50;22.70;;;15.02;;
85379;SDS011;75783;45.742;11.674;2024-01-15T21:49:56;22.85;;;15.05;;
85379;SDS011;75783;45.742;11.674;2024-01-15T21:50:05;21.97;;;15.30;;
85379;SDS011;75783;45.742;11.674;2024-01-15T21:50:12;22.70;;;15.37;;
85379;SDS011;75783;45.742;11.674;2024-01-15T21:50:17;22.63;;;15.68;;
85379;SDS011;75783;45.742;11.674;2024-01-15T21:50:23;23.33;;;15.67;;
85379;SDS011;75783;45.742;11.674;2024-01-15T21:50:28;23.90;;;15.73;;
85379;SDS011;75783;45.742;11.674;2024-01-15T21:50:34;25.00;;;15.77;;
85379;SDS011;75783;45.742;11.674;2024-01-15T21:50:40;25.45;;;15.93;;